createdAt,value
2024-03-17T00:00:33.000Z,5.00
2024-03-17T00:01:32.962Z,4.97
2024-03-17T00:02:32.956Z,4.97
2024-03-17T00:03:32.988Z,4.97
2024-03-17T00:04:32.947Z,5.00
2024-03-17T00:05:32.945Z,4.99
2024-03-17T00:06:32.929Z,4.94
2024-03-17T00:07:32.925Z,4.89
2024-03-17T00:08:32.931Z,4.85
2024-03-17T00:09:32.896Z,4.77
2024-03-17T00:10:32.887Z,4.66
2024-03-17T00:11:32.884Z,4.58
2024-03-17T00:12:32.882Z,4.42
2024-03-17T00:13:32.877Z,4.27
2024-03-17T00:14:32.834Z,4.23
2024-03-17T00:15:32.840Z,4.14
2024-03-17T00:16:32.836Z,4.12
2024-03-17T00:17:32.827Z,4.14
2024-03-17T00:18:32.794Z,4.24
2024-03-17T00:19:32.779Z,4.30
2024-03-17T00:20:32.771Z,4.36
2024-03-17T00:21:32.789Z,4.45
2024-03-17T00:22:32.769Z,4.52
2024-03-17T00:23:32.799Z,4.54
2024-03-17T00:24:32.763Z,4.59
2024-03-17T00:25:32.756Z,4.58
2024-03-17T00:26:32.722Z,4.58
2024-03-17T00:27:32.721Z,4.51
2024-03-17T00:28:32.711Z,4.45
2024-03-17T00:29:32.689Z,4.41
2024-03-17T00:30:35.129Z,4.29
2024-03-17T00:31:32.657Z,4.22
2024-03-17T00:32:32.654Z,4.20
2024-03-17T00:33:32.652Z,4.22
2024-03-17T00:34:32.634Z,4.27
2024-03-17T00:35:32.663Z,4.23
2024-03-17T00:36:32.617Z,4.22
2024-03-17T00:37:32.597Z,4.22
2024-03-17T00:38:32.590Z,4.22
2024-03-17T00:39:32.601Z,4.22
2024-03-17T00:40:32.621Z,4.14
2024-03-17T00:41:32.550Z,4.05
2024-03-17T00:42:32.569Z,3.94
2024-03-17T00:43:32.544Z,3.72
2024-03-17T00:44:32.534Z,3.58
2024-03-17T00:45:32.538Z,3.52
2024-03-17T00:46:32.574Z,3.58
2024-03-17T00:47:32.501Z,3.68
2024-03-17T00:48:32.507Z,3.76
2024-03-17T00:49:32.468Z,3.83
2024-03-17T00:50:32.538Z,3.90
2024-03-17T00:51:32.494Z,3.90
2024-03-17T00:52:32.525Z,3.91
2024-03-17T00:53:32.505Z,3.93
2024-03-17T00:54:32.436Z,3.93
2024-03-17T00:55:32.402Z,3.93
2024-03-17T00:56:32.425Z,3.94
2024-03-17T00:57:32.403Z,3.91
2024-03-17T00:58:32.379Z,3.88
2024-03-17T00:59:32.395Z,3.90
2024-03-17T01:00:32.388Z,3.90
2024-03-17T01:01:32.340Z,3.88
2024-03-17T01:02:32.364Z,3.83
2024-03-17T01:03:32.339Z,3.79
2024-03-17T01:04:32.315Z,3.76
2024-03-17T01:05:32.328Z,3.73
2024-03-17T01:06:32.304Z,3.70
2024-03-17T01:07:32.294Z,3.70
2024-03-17T01:08:32.305Z,3.72
2024-03-17T01:09:32.267Z,3.69
2024-03-17T01:10:32.255Z,3.69
2024-03-17T01:11:32.255Z,3.65
2024-03-17T01:12:32.254Z,3.58
2024-03-17T01:13:32.276Z,3.65
2024-03-17T01:14:32.216Z,3.66
2024-03-17T01:15:32.217Z,3.66
2024-03-17T01:16:32.188Z,3.61
2024-03-17T01:17:32.176Z,3.60
2024-03-17T01:18:32.169Z,3.55
2024-03-17T01:19:32.216Z,3.60
2024-03-17T01:20:32.173Z,3.65
2024-03-17T01:21:32.173Z,3.66
2024-03-17T01:22:32.145Z,3.68
2024-03-17T01:23:32.127Z,3.66
2024-03-17T01:24:32.137Z,3.61
2024-03-17T01:25:32.138Z,3.58
2024-03-17T01:26:32.140Z,3.50
2024-03-17T01:27:32.075Z,3.50
2024-03-17T01:28:32.138Z,3.39
2024-03-17T01:29:32.057Z,3.31
2024-03-17T01:30:32.037Z,3.32
2024-03-17T01:31:32.045Z,3.35
2024-03-17T01:32:32.097Z,3.33
2024-03-17T01:33:32.042Z,3.40
2024-03-17T01:34:32.021Z,3.42
2024-03-17T01:35:32.045Z,3.45
2024-03-17T01:36:31.969Z,3.43
2024-03-17T01:37:31.966Z,3.45
2024-03-17T01:38:31.999Z,3.51
2024-03-17T01:39:31.947Z,3.50
2024-03-17T01:40:31.937Z,3.54
2024-03-17T01:41:31.935Z,3.52
2024-03-17T01:42:31.923Z,3.55
2024-03-17T01:43:31.892Z,3.51
2024-03-17T01:44:38.479Z,3.50
2024-03-17T01:45:31.914Z,3.47
2024-03-17T01:46:31.876Z,3.45
2024-03-17T01:47:31.886Z,3.45
2024-03-17T01:48:31.851Z,3.45
2024-03-17T01:49:31.885Z,3.47
2024-03-17T01:50:31.869Z,3.45
2024-03-17T01:51:31.827Z,3.47
2024-03-17T01:52:31.807Z,3.50
2024-03-17T01:53:31.811Z,3.52
2024-03-17T01:54:31.782Z,3.51
2024-03-17T01:55:31.802Z,3.51
2024-03-17T01:56:31.756Z,3.50
2024-03-17T01:57:31.743Z,3.45
2024-03-17T01:58:31.759Z,3.42
2024-03-17T01:59:31.743Z,3.40
2024-03-17T02:00:31.704Z,3.43
2024-03-17T02:01:31.724Z,3.50
2024-03-17T02:02:31.681Z,3.45
2024-03-17T02:03:31.683Z,3.43
2024-03-17T02:04:31.696Z,3.42
2024-03-17T02:05:31.646Z,3.40
2024-03-17T02:06:31.720Z,3.33
2024-03-17T02:07:31.629Z,3.36
2024-03-17T02:08:31.669Z,3.40
2024-03-17T02:09:31.629Z,3.42
2024-03-17T02:10:31.595Z,3.48
2024-03-17T02:11:31.638Z,3.50
2024-03-17T02:12:31.608Z,3.47
2024-03-17T02:13:31.564Z,3.50
2024-03-17T02:14:31.553Z,3.51
2024-03-17T02:15:31.562Z,3.50
2024-03-17T02:16:31.569Z,3.52
2024-03-17T02:17:31.525Z,3.51
2024-03-17T02:18:31.533Z,3.50
2024-03-17T02:19:31.534Z,3.47
2024-03-17T02:20:31.525Z,3.45
2024-03-17T02:21:31.513Z,3.40
2024-03-17T02:22:31.464Z,3.40
2024-03-17T02:23:38.148Z,3.40
2024-03-17T02:24:31.486Z,3.40
2024-03-17T02:25:31.431Z,3.39
2024-03-17T02:26:31.431Z,3.40
2024-03-17T02:27:31.501Z,3.33
2024-03-17T02:28:31.400Z,3.33
2024-03-17T02:29:31.404Z,3.31
2024-03-17T02:30:31.383Z,3.31
2024-03-17T02:31:31.394Z,3.33
2024-03-17T02:32:31.383Z,3.36
2024-03-17T02:33:31.353Z,3.36
2024-03-17T02:34:31.360Z,3.39
2024-03-17T02:35:31.375Z,3.35
2024-03-17T02:36:31.321Z,3.33
2024-03-17T02:37:31.321Z,3.28
2024-03-17T02:38:31.288Z,3.23
2024-03-17T02:39:31.294Z,3.23
2024-03-17T02:40:31.270Z,3.21
2024-03-17T02:41:31.252Z,3.23
2024-03-17T02:42:31.300Z,3.20
2024-03-17T02:43:31.256Z,3.15
2024-03-17T02:44:31.222Z,3.14
2024-03-17T02:45:31.226Z,3.18
2024-03-17T02:46:31.195Z,3.23
2024-03-17T02:47:31.190Z,3.28
2024-03-17T02:48:31.202Z,3.31
2024-03-17T02:49:31.172Z,3.32
2024-03-17T02:50:31.164Z,3.36
2024-03-17T02:51:31.152Z,3.39
2024-03-17T02:52:31.140Z,3.35
2024-03-17T02:53:31.123Z,3.33
2024-03-17T02:54:36.177Z,3.40
2024-03-17T02:55:31.142Z,3.39
2024-03-17T02:56:31.135Z,3.45
2024-03-17T02:57:31.080Z,3.50
2024-03-17T02:58:31.077Z,3.52
2024-03-17T02:59:31.109Z,3.58
2024-03-17T03:00:31.077Z,3.51
2024-03-17T03:01:31.055Z,3.54
2024-03-17T03:02:31.028Z,3.51
2024-03-17T03:03:31.008Z,3.52
2024-03-17T03:04:30.999Z,3.51
2024-03-17T03:05:31.005Z,3.47
2024-03-17T03:06:31.083Z,3.40
2024-03-17T03:07:30.979Z,3.39
2024-03-17T03:08:30.965Z,3.40
2024-03-17T03:09:30.964Z,3.39
2024-03-17T03:10:30.973Z,3.43
2024-03-17T03:11:30.924Z,3.32
2024-03-17T03:12:30.934Z,3.24
2024-03-17T03:13:30.905Z,3.10
2024-03-17T03:14:30.935Z,2.87
2024-03-17T03:15:30.889Z,2.78
2024-03-17T03:16:30.878Z,2.71
2024-03-17T03:17:30.851Z,2.67
2024-03-17T03:18:30.870Z,2.57
2024-03-17T03:19:30.863Z,2.39
2024-03-17T03:20:30.822Z,2.18
2024-03-17T03:21:30.865Z,2.09
2024-03-17T03:22:30.817Z,2.14
2024-03-17T03:23:30.804Z,2.18
2024-03-17T03:24:30.771Z,2.25
2024-03-17T03:25:30.801Z,2.23
2024-03-17T03:26:30.750Z,2.18
2024-03-17T03:27:30.773Z,2.07
2024-03-17T03:28:30.764Z,2.05
2024-03-17T03:29:30.727Z,2.02
2024-03-17T03:30:30.701Z,1.99
2024-03-17T03:31:30.724Z,2.09
2024-03-17T03:32:30.706Z,2.18
2024-03-17T03:33:30.680Z,2.21
2024-03-17T03:34:30.683Z,2.17
2024-03-17T03:35:30.681Z,2.16
2024-03-17T03:36:30.677Z,2.16
2024-03-17T03:37:30.629Z,2.16
2024-03-17T03:38:30.639Z,2.18
2024-03-17T03:39:30.680Z,2.28
2024-03-17T03:40:30.596Z,2.48
2024-03-17T03:41:30.622Z,2.59
2024-03-17T03:42:30.581Z,2.67
2024-03-17T03:43:30.613Z,2.72
2024-03-17T03:44:30.577Z,2.74
2024-03-17T03:45:30.554Z,2.78
2024-03-17T03:46:30.539Z,2.82
2024-03-17T03:47:30.612Z,2.82
2024-03-17T03:48:30.512Z,2.69
2024-03-17T03:49:30.507Z,2.52
2024-03-17T03:50:30.516Z,2.30
2024-03-17T03:51:30.517Z,2.07
2024-03-17T03:52:30.500Z,1.91
2024-03-17T03:53:30.491Z,1.80
2024-03-17T03:54:30.479Z,1.70
2024-03-17T03:55:30.471Z,1.66
2024-03-17T03:56:30.434Z,1.63
2024-03-17T03:57:30.472Z,1.58
2024-03-17T03:58:30.443Z,1.54
2024-03-17T03:59:30.416Z,1.52
2024-03-17T04:00:30.415Z,1.48
2024-03-17T04:01:30.409Z,1.45
2024-03-17T04:02:30.403Z,1.40
2024-03-17T04:03:30.392Z,1.33
2024-03-17T04:04:30.366Z,1.29
2024-03-17T04:05:30.381Z,1.24
2024-03-17T04:06:30.341Z,1.14
2024-03-17T04:07:30.344Z,1.05
2024-03-17T04:08:30.337Z,1.04
2024-03-17T04:09:30.314Z,1.02
2024-03-17T04:10:30.303Z,0.98
2024-03-17T04:11:30.303Z,1.09
2024-03-17T04:12:30.613Z,1.22
2024-03-17T04:13:30.286Z,1.30
2024-03-17T04:14:30.283Z,1.36
2024-03-17T04:15:30.286Z,1.37
2024-03-17T04:16:30.236Z,1.41
2024-03-17T04:17:30.303Z,1.42
2024-03-17T04:18:30.216Z,1.40
2024-03-17T04:19:30.210Z,1.32
2024-03-17T04:20:30.193Z,1.29
2024-03-17T04:21:30.194Z,1.26
2024-03-17T04:22:30.200Z,1.26
2024-03-17T04:23:30.163Z,1.32
2024-03-17T04:24:30.161Z,1.44
2024-03-17T04:25:30.149Z,1.52
2024-03-17T04:26:30.124Z,1.62
2024-03-17T04:27:30.144Z,1.66
2024-03-17T04:28:30.107Z,1.68
2024-03-17T04:29:30.140Z,1.73
2024-03-17T04:30:30.096Z,1.77
2024-03-17T04:31:30.102Z,1.76
2024-03-17T04:32:30.064Z,1.66
2024-03-17T04:33:30.091Z,1.60
2024-03-17T04:34:30.045Z,1.62
2024-03-17T04:35:30.054Z,1.69
2024-03-17T04:36:30.043Z,1.77
2024-03-17T04:37:30.060Z,1.84
2024-03-17T04:38:30.005Z,1.91
2024-03-17T04:39:30.021Z,2.00
2024-03-17T04:40:29.996Z,2.10
2024-03-17T04:41:29.993Z,2.18
2024-03-17T04:42:29.968Z,2.21
2024-03-17T04:43:29.984Z,2.24
2024-03-17T04:44:29.990Z,2.24
2024-03-17T04:45:29.949Z,2.28
2024-03-17T04:46:29.943Z,2.14
2024-03-17T04:47:29.929Z,2.03
2024-03-17T04:48:29.947Z,1.93
2024-03-17T04:49:29.972Z,1.93
2024-03-17T04:50:29.888Z,1.95
2024-03-17T04:51:29.888Z,1.93
2024-03-17T04:52:29.867Z,1.80
2024-03-17T04:53:29.857Z,1.76
2024-03-17T04:54:31.798Z,1.70
2024-03-17T04:55:29.843Z,1.69
2024-03-17T04:56:29.821Z,1.62
2024-03-17T04:57:29.820Z,1.54
2024-03-17T04:58:29.829Z,1.44
2024-03-17T04:59:29.840Z,1.32
2024-03-17T05:00:29.779Z,1.22
2024-03-17T05:01:29.777Z,1.12
2024-03-17T05:02:29.802Z,1.08
2024-03-17T05:03:29.757Z,0.98
2024-03-17T05:04:29.771Z,0.97
2024-03-17T05:05:29.748Z,0.94
2024-03-17T05:06:29.740Z,0.93
2024-03-17T05:07:29.724Z,1.00
2024-03-17T05:08:29.708Z,1.02
2024-03-17T05:09:29.736Z,0.98
2024-03-17T05:10:29.738Z,0.94
2024-03-17T05:11:29.681Z,0.96
2024-03-17T05:12:29.658Z,0.90
2024-03-17T05:13:29.685Z,0.87
2024-03-17T05:14:29.673Z,0.83
2024-03-17T05:15:29.717Z,0.76
2024-03-17T05:16:29.691Z,0.73
2024-03-17T05:17:29.668Z,0.70
2024-03-17T05:18:29.664Z,0.72
2024-03-17T05:19:29.682Z,0.78
2024-03-17T05:20:29.631Z,0.84
2024-03-17T05:21:29.758Z,0.86
2024-03-17T05:22:29.694Z,0.91
2024-03-17T05:23:29.617Z,0.97
2024-03-17T05:24:29.634Z,1.04
2024-03-17T05:25:29.546Z,1.06
2024-03-17T05:26:29.519Z,1.05
2024-03-17T05:27:29.530Z,1.06
2024-03-17T05:28:29.507Z,1.02
2024-03-17T05:29:29.539Z,0.97
2024-03-17T05:30:29.475Z,1.00
2024-03-17T05:31:29.484Z,1.04
2024-03-17T05:32:29.488Z,1.09
2024-03-17T05:33:29.457Z,1.18
2024-03-17T05:34:29.463Z,1.23
2024-03-17T05:35:29.455Z,1.29
2024-03-17T05:36:29.452Z,1.34
2024-03-17T05:37:29.443Z,1.41
2024-03-17T05:38:29.395Z,1.42
2024-03-17T05:39:29.352Z,1.34
2024-03-17T05:40:29.379Z,1.32
2024-03-17T05:41:29.329Z,1.27
2024-03-17T05:42:29.331Z,1.26
2024-03-17T05:43:29.318Z,1.24
2024-03-17T05:44:29.289Z,1.32
2024-03-17T05:45:29.305Z,1.33
2024-03-17T05:46:29.267Z,1.32
2024-03-17T05:47:29.285Z,1.32
2024-03-17T05:48:29.277Z,1.40
2024-03-17T05:49:29.270Z,1.51
2024-03-17T05:50:29.223Z,1.59
2024-03-17T05:51:29.242Z,1.68
2024-03-17T05:52:29.205Z,1.79
2024-03-17T05:53:29.211Z,1.86
2024-03-17T05:54:29.199Z,1.95
2024-03-17T05:55:29.193Z,1.99
2024-03-17T05:56:29.186Z,2.03
2024-03-17T05:57:29.164Z,2.07
2024-03-17T05:58:29.145Z,2.16
2024-03-17T05:59:29.148Z,2.18
2024-03-17T06:00:29.125Z,2.23
2024-03-17T06:01:29.143Z,2.23
2024-03-17T06:02:29.125Z,2.20
2024-03-17T06:03:29.100Z,2.14
2024-03-17T06:04:29.106Z,2.16
2024-03-17T06:05:29.073Z,2.12
2024-03-17T06:06:29.088Z,2.10
2024-03-17T06:07:29.084Z,2.10
2024-03-17T06:08:29.061Z,2.14
2024-03-17T06:09:29.063Z,2.20
2024-03-17T06:10:29.036Z,2.20
2024-03-17T06:11:29.044Z,2.23
2024-03-17T06:12:29.056Z,2.27
2024-03-17T06:13:29.017Z,2.28
2024-03-17T06:14:29.002Z,2.34
2024-03-17T06:15:28.995Z,2.31
2024-03-17T06:16:28.993Z,2.38
2024-03-17T06:17:28.967Z,2.36
2024-03-17T06:18:28.965Z,2.39
2024-03-17T06:19:28.933Z,2.41
2024-03-17T06:20:28.927Z,2.39
2024-03-17T06:21:28.939Z,2.35
2024-03-17T06:22:28.935Z,2.35
2024-03-17T06:23:28.904Z,2.34
2024-03-17T06:24:28.881Z,2.35
2024-03-17T06:25:28.889Z,2.31
2024-03-17T06:26:28.912Z,2.35
2024-03-17T06:27:28.892Z,2.31
2024-03-17T06:28:28.856Z,2.30
2024-03-17T06:29:28.829Z,2.34
2024-03-17T06:30:32.365Z,2.28
2024-03-17T06:31:28.857Z,2.31
2024-03-17T06:32:28.843Z,2.28
2024-03-17T06:33:28.831Z,2.34
2024-03-17T06:34:28.778Z,2.34
2024-03-17T06:35:28.775Z,2.36
2024-03-17T06:36:28.780Z,2.38
2024-03-17T06:37:28.754Z,2.36
2024-03-17T06:38:28.770Z,2.42
2024-03-17T06:39:28.759Z,2.41
2024-03-17T06:40:28.728Z,2.42
2024-03-17T06:41:28.724Z,2.43
2024-03-17T06:42:28.692Z,2.43
2024-03-17T06:43:28.732Z,2.48
2024-03-17T06:44:28.713Z,2.49
2024-03-17T06:45:28.684Z,2.48
2024-03-17T06:46:28.659Z,2.48
2024-03-17T06:47:30.273Z,2.49
2024-03-17T06:48:28.669Z,2.52
2024-03-17T06:49:28.660Z,2.54
2024-03-17T06:50:28.638Z,2.53
2024-03-17T06:51:28.640Z,2.54
2024-03-17T06:52:28.640Z,2.56
2024-03-17T06:53:28.587Z,2.56
2024-03-17T06:54:28.568Z,2.61
2024-03-17T06:55:28.583Z,2.63
2024-03-17T06:56:28.606Z,2.67
2024-03-17T06:57:28.537Z,2.69
2024-03-17T06:58:28.591Z,2.75
2024-03-17T06:59:28.543Z,2.78
2024-03-17T07:00:28.512Z,2.82
2024-03-17T07:01:28.507Z,2.90
2024-03-17T07:02:28.522Z,2.92
2024-03-17T07:03:28.478Z,2.96
2024-03-17T07:04:28.508Z,3.02
2024-03-17T07:05:28.464Z,3.03
2024-03-17T07:06:28.466Z,3.08
2024-03-17T07:07:28.448Z,3.11
2024-03-17T07:08:28.438Z,3.14
2024-03-17T07:09:28.418Z,3.18
2024-03-17T07:10:28.415Z,3.20
2024-03-17T07:11:28.427Z,3.24
2024-03-17T07:12:28.379Z,3.26
2024-03-17T07:13:28.381Z,3.26
2024-03-17T07:14:28.401Z,3.29
2024-03-17T07:15:28.351Z,3.32
2024-03-17T07:16:28.367Z,3.33
2024-03-17T07:17:28.648Z,3.33
2024-03-17T07:18:28.394Z,3.40
2024-03-17T07:19:28.336Z,3.43
2024-03-17T07:20:28.335Z,3.47
2024-03-17T07:21:28.273Z,3.52
2024-03-17T07:22:28.277Z,3.58
2024-03-17T07:23:28.283Z,3.65
2024-03-17T07:24:28.268Z,3.68
2024-03-17T07:25:28.258Z,3.73
2024-03-17T07:26:28.239Z,3.76
2024-03-17T07:27:28.218Z,3.80
2024-03-17T07:28:28.205Z,3.88
2024-03-17T07:29:28.212Z,3.96
2024-03-17T07:30:28.190Z,4.00
2024-03-17T07:31:28.190Z,4.05
2024-03-17T07:32:28.181Z,4.11
2024-03-17T07:33:28.179Z,4.18
2024-03-17T07:34:28.163Z,4.20
2024-03-17T07:35:28.116Z,4.29
2024-03-17T07:36:28.109Z,4.34
2024-03-17T07:37:28.125Z,4.41
2024-03-17T07:38:28.102Z,4.44
2024-03-17T07:39:28.113Z,4.50
2024-03-17T07:40:28.077Z,4.54
2024-03-17T07:41:28.081Z,4.58
2024-03-17T07:42:28.056Z,4.63
2024-03-17T07:43:28.085Z,4.72
2024-03-17T07:44:28.060Z,4.78
2024-03-17T07:45:28.030Z,4.86
2024-03-17T07:46:28.013Z,4.92
2024-03-17T07:47:28.043Z,4.94
2024-03-17T07:48:27.989Z,4.96
2024-03-17T07:49:27.984Z,5.03
2024-03-17T07:50:27.979Z,5.06
2024-03-17T07:51:27.974Z,5.10
2024-03-17T07:52:27.941Z,5.21
2024-03-17T07:53:27.938Z,5.28
2024-03-17T07:54:27.926Z,5.38
2024-03-17T07:55:27.901Z,5.40
2024-03-17T07:56:27.920Z,5.42
2024-03-17T07:57:27.871Z,5.53
2024-03-17T07:58:27.869Z,5.64
2024-03-17T07:59:27.853Z,5.75
2024-03-17T08:00:27.863Z,5.90
2024-03-17T08:01:29.122Z,6.11
2024-03-17T08:02:27.835Z,6.28
2024-03-17T08:03:27.828Z,6.37
2024-03-17T08:04:27.842Z,6.34
2024-03-17T08:05:27.816Z,6.33
2024-03-17T08:06:27.793Z,6.28
2024-03-17T08:07:27.799Z,6.25
2024-03-17T08:08:27.763Z,6.22
2024-03-17T08:09:27.780Z,6.21
2024-03-17T08:10:27.746Z,6.25
2024-03-17T08:11:27.754Z,6.19
2024-03-17T08:12:27.842Z,6.22
2024-03-17T08:13:27.707Z,6.22
2024-03-17T08:14:27.736Z,6.22
2024-03-17T08:15:27.690Z,6.25
2024-03-17T08:16:27.709Z,6.27
2024-03-17T08:17:27.686Z,6.44
2024-03-17T08:18:27.691Z,6.58
2024-03-17T08:19:27.656Z,6.85
2024-03-17T08:20:27.660Z,7.09
2024-03-17T08:21:27.667Z,7.28
2024-03-17T08:22:27.631Z,7.28
2024-03-17T08:23:27.610Z,7.28
2024-03-17T08:24:27.616Z,7.27
2024-03-17T08:25:27.592Z,7.25
2024-03-17T08:26:27.588Z,7.21
2024-03-17T08:27:27.565Z,7.20
2024-03-17T08:28:27.551Z,7.13
2024-03-17T08:29:27.580Z,7.23
2024-03-17T08:30:27.955Z,7.24
2024-03-17T08:31:27.563Z,7.32
2024-03-17T08:32:27.534Z,7.31
2024-03-17T08:33:27.513Z,7.25
2024-03-17T08:34:27.496Z,7.25
2024-03-17T08:35:27.477Z,7.25
2024-03-17T08:36:27.579Z,7.21
2024-03-17T08:37:27.484Z,7.21
2024-03-17T08:38:27.455Z,7.20
2024-03-17T08:39:27.447Z,7.24
2024-03-17T08:40:27.428Z,7.40
2024-03-17T08:41:27.437Z,7.57
2024-03-17T08:42:27.416Z,7.61
2024-03-17T08:43:27.397Z,7.75
2024-03-17T08:44:27.385Z,7.83
2024-03-17T08:45:33.886Z,7.90
2024-03-17T08:46:27.394Z,7.93
2024-03-17T08:47:27.374Z,8.08
2024-03-17T08:48:27.340Z,8.07
2024-03-17T08:49:27.330Z,8.12
2024-03-17T08:50:27.354Z,8.07
2024-03-17T08:51:27.327Z,7.98
2024-03-17T08:52:27.309Z,7.90
2024-03-17T08:53:27.285Z,7.82
2024-03-17T08:54:27.305Z,7.86
2024-03-17T08:55:27.259Z,7.85
2024-03-17T08:56:27.293Z,7.80
2024-03-17T08:57:27.246Z,7.79
2024-03-17T08:58:27.232Z,7.79
2024-03-17T08:59:27.257Z,7.75
2024-03-17T09:00:27.220Z,7.89
2024-03-17T09:01:27.197Z,7.87
2024-03-17T09:02:27.197Z,8.05
2024-03-17T09:03:27.183Z,8.12
2024-03-17T09:04:27.198Z,8.15
2024-03-17T09:05:27.148Z,8.16
2024-03-17T09:06:27.168Z,8.18
2024-03-17T09:07:27.135Z,8.15
2024-03-17T09:08:27.140Z,8.12
2024-03-17T09:09:27.138Z,8.18
2024-03-17T09:10:27.111Z,8.22
2024-03-17T09:11:27.158Z,8.33
2024-03-17T09:12:27.109Z,8.50
2024-03-17T09:13:27.093Z,8.50
2024-03-17T09:14:27.081Z,8.50
2024-03-17T09:15:27.085Z,8.47
2024-03-17T09:16:27.109Z,8.50
2024-03-17T09:17:27.033Z,8.52
2024-03-17T09:18:27.039Z,8.52
2024-03-17T09:19:27.029Z,8.59
2024-03-17T09:20:27.006Z,8.83
2024-03-17T09:21:27.015Z,8.95
2024-03-17T09:22:27.029Z,9.04
2024-03-17T09:23:27.048Z,9.13
2024-03-17T09:24:26.999Z,9.21
2024-03-17T09:25:26.943Z,9.15
2024-03-17T09:26:26.934Z,9.28
2024-03-17T09:27:26.951Z,9.29
2024-03-17T09:28:26.943Z,9.32
2024-03-17T09:29:26.909Z,9.36
2024-03-17T09:30:26.905Z,9.28
2024-03-17T09:31:26.872Z,9.32
2024-03-17T09:32:26.883Z,9.29
2024-03-17T09:33:26.851Z,9.26
2024-03-17T09:34:26.864Z,9.31
2024-03-17T09:35:26.828Z,9.48
2024-03-17T09:36:26.840Z,9.54
2024-03-17T09:37:26.904Z,9.53
2024-03-17T09:38:26.857Z,9.47
2024-03-17T09:39:26.816Z,9.38
2024-03-17T09:40:26.798Z,9.35
2024-03-17T09:41:26.767Z,9.31
2024-03-17T09:42:26.791Z,9.31
2024-03-17T09:43:26.749Z,9.28
2024-03-17T09:44:26.761Z,9.26
2024-03-17T09:45:26.723Z,9.31
2024-03-17T09:46:26.744Z,9.32
2024-03-17T09:47:26.721Z,9.32
2024-03-17T09:48:26.722Z,9.26
2024-03-17T09:49:26.701Z,9.24
2024-03-17T09:50:26.677Z,9.40
2024-03-17T09:51:26.674Z,9.40
2024-03-17T09:52:26.670Z,9.43
2024-03-17T09:53:26.638Z,9.54
2024-03-17T09:54:26.639Z,9.60
2024-03-17T09:55:26.618Z,9.43
2024-03-17T09:56:26.643Z,9.23
2024-03-17T09:57:26.598Z,9.08
2024-03-17T09:58:26.583Z,9.02
2024-03-17T09:59:26.566Z,9.23
2024-03-17T10:00:26.585Z,9.29
2024-03-17T10:01:26.642Z,9.40
2024-03-17T10:02:26.554Z,9.53
2024-03-17T10:03:26.600Z,9.54
2024-03-17T10:04:26.592Z,9.51
2024-03-17T10:05:26.513Z,9.36
2024-03-17T10:06:26.514Z,9.33
2024-03-17T10:07:26.514Z,9.24
2024-03-17T10:08:26.486Z,9.18
2024-03-17T10:09:26.458Z,9.26
2024-03-17T10:10:26.502Z,9.35
2024-03-17T10:11:26.469Z,9.57
2024-03-17T10:12:26.470Z,9.54
2024-03-17T10:13:26.427Z,9.75
2024-03-17T10:14:26.447Z,9.90
2024-03-17T10:15:26.428Z,10.09
2024-03-17T10:16:26.459Z,9.99
2024-03-17T10:17:26.405Z,9.97
2024-03-17T10:18:26.396Z,9.94
2024-03-17T10:19:29.929Z,9.97
2024-03-17T10:20:26.352Z,10.05
2024-03-17T10:21:26.329Z,9.96
2024-03-17T10:22:26.354Z,10.15
2024-03-17T10:23:34.517Z,10.26
2024-03-17T10:24:26.422Z,10.40
2024-03-17T10:25:26.293Z,10.44
2024-03-17T10:26:26.285Z,10.44
2024-03-17T10:27:26.876Z,10.40
2024-03-17T10:28:26.266Z,10.34
2024-03-17T10:29:26.251Z,10.47
2024-03-17T10:30:26.237Z,10.51
2024-03-17T10:31:26.234Z,10.63
2024-03-17T10:32:26.262Z,10.61
2024-03-17T10:33:26.193Z,10.42
2024-03-17T10:34:27.682Z,10.34
2024-03-17T10:35:26.176Z,10.29
2024-03-17T10:36:26.187Z,10.42
2024-03-17T10:37:26.191Z,10.56
2024-03-17T10:38:26.161Z,10.47
2024-03-17T10:39:26.168Z,10.32
2024-03-17T10:40:26.154Z,10.18
2024-03-17T10:41:26.137Z,10.02
2024-03-17T10:42:26.145Z,9.87
2024-03-17T10:43:26.106Z,9.75
2024-03-17T10:44:26.092Z,9.65
2024-03-17T10:45:26.075Z,9.78
2024-03-17T10:46:27.086Z,9.81
2024-03-17T10:47:26.111Z,9.86
2024-03-17T10:48:26.058Z,9.90
2024-03-17T10:49:26.050Z,9.90
2024-03-17T10:50:26.031Z,9.93
2024-03-17T10:51:26.039Z,9.91
2024-03-17T10:52:28.280Z,9.90
2024-03-17T10:53:25.995Z,9.96
2024-03-17T10:54:26.032Z,10.17
2024-03-17T10:55:25.967Z,10.40
2024-03-17T10:56:25.966Z,10.52
2024-03-17T10:57:25.973Z,10.44
2024-03-17T10:58:25.965Z,10.42
2024-03-17T10:59:25.925Z,10.47
2024-03-17T11:00:25.928Z,10.56
2024-03-17T11:01:26.027Z,10.56
2024-03-17T11:02:25.900Z,10.56
2024-03-17T11:03:25.917Z,10.47
2024-03-17T11:04:25.874Z,10.38
2024-03-17T11:05:25.864Z,10.53
2024-03-17T11:06:25.855Z,10.55
2024-03-17T11:07:25.845Z,10.61
2024-03-17T11:08:32.178Z,10.48
2024-03-17T11:09:25.820Z,10.60
2024-03-17T11:10:25.866Z,10.66
2024-03-17T11:11:25.827Z,10.56
2024-03-17T11:12:26.273Z,10.45
2024-03-17T11:13:25.824Z,10.74
2024-03-17T11:14:25.775Z,10.97
2024-03-17T11:15:25.772Z,11.10
2024-03-17T11:16:25.749Z,11.18
2024-03-17T11:17:25.799Z,11.03
2024-03-17T11:18:25.749Z,10.70
2024-03-17T11:19:25.732Z,10.40
2024-03-17T11:20:25.718Z,10.22
2024-03-17T11:21:25.699Z,10.25
2024-03-17T11:22:25.714Z,10.23
2024-03-17T11:23:28.138Z,10.27
2024-03-17T11:24:25.666Z,10.55
2024-03-17T11:25:25.734Z,10.59
2024-03-17T11:26:25.670Z,10.66
2024-03-17T11:27:25.634Z,10.78
2024-03-17T11:28:25.634Z,10.76
2024-03-17T11:29:25.627Z,10.84
2024-03-17T11:30:25.655Z,10.82
2024-03-17T11:31:25.608Z,10.85
2024-03-17T11:32:25.613Z,10.86
2024-03-17T11:33:25.599Z,10.86
2024-03-17T11:34:25.568Z,10.91
2024-03-17T11:35:25.559Z,10.89
2024-03-17T11:36:25.561Z,10.82
2024-03-17T11:37:25.545Z,10.76
2024-03-17T11:38:25.513Z,11.02
2024-03-17T11:39:25.529Z,11.11
2024-03-17T11:40:25.508Z,11.14
2024-03-17T11:41:25.505Z,11.18
2024-03-17T11:42:25.472Z,11.35
2024-03-17T11:43:27.744Z,11.42
2024-03-17T11:44:25.465Z,11.36
2024-03-17T11:45:25.456Z,11.33
2024-03-17T11:46:25.467Z,11.37
2024-03-17T11:47:25.500Z,11.27
2024-03-17T11:48:25.408Z,11.19
2024-03-17T11:49:25.419Z,11.09
2024-03-17T11:50:25.390Z,11.07
2024-03-17T11:51:25.395Z,11.04
2024-03-17T11:52:25.404Z,11.15
2024-03-17T11:53:25.355Z,11.17
2024-03-17T11:54:25.346Z,10.96
2024-03-17T11:55:25.436Z,11.00
2024-03-17T11:56:25.318Z,10.92
2024-03-17T11:57:25.350Z,10.92
2024-03-17T11:58:25.319Z,10.94
2024-03-17T11:59:25.296Z,10.89
2024-03-17T12:00:25.317Z,10.82
2024-03-17T12:01:25.313Z,10.76
2024-03-17T12:02:25.267Z,10.71
2024-03-17T12:03:25.257Z,10.73
2024-03-17T12:04:25.240Z,10.99
2024-03-17T12:05:25.253Z,11.14
2024-03-17T12:06:25.261Z,11.21
2024-03-17T12:07:25.231Z,11.24
2024-03-17T12:08:25.188Z,11.22
2024-03-17T12:09:25.190Z,11.32
2024-03-17T12:10:25.192Z,11.82
2024-03-17T12:11:25.197Z,12.12
2024-03-17T12:12:25.143Z,12.02
2024-03-17T12:13:25.163Z,11.73
2024-03-17T12:14:25.157Z,11.78
2024-03-17T12:15:25.113Z,11.82
2024-03-17T12:16:25.121Z,11.58
2024-03-17T12:17:25.121Z,11.42
2024-03-17T12:18:25.080Z,11.44
2024-03-17T12:19:25.124Z,11.49
2024-03-17T12:20:25.111Z,11.58
2024-03-17T12:21:25.079Z,11.64
2024-03-17T12:22:25.080Z,11.76
2024-03-17T12:23:25.033Z,12.07
2024-03-17T12:24:25.022Z,12.24
2024-03-17T12:25:26.750Z,12.29
2024-03-17T12:26:25.011Z,12.09
2024-03-17T12:27:25.000Z,11.90
2024-03-17T12:28:25.013Z,11.83
2024-03-17T12:29:24.975Z,11.82
2024-03-17T12:30:24.961Z,11.67
2024-03-17T12:31:25.021Z,11.64
2024-03-17T12:32:24.930Z,11.67
2024-03-17T12:33:24.973Z,11.73
2024-03-17T12:34:24.923Z,11.65
2024-03-17T12:35:24.955Z,11.52
2024-03-17T12:36:24.929Z,11.49
2024-03-17T12:37:24.959Z,11.42
2024-03-17T12:38:24.874Z,11.32
2024-03-17T12:39:24.861Z,11.28
2024-03-17T12:40:24.872Z,11.42
2024-03-17T12:41:24.872Z,11.49
2024-03-17T12:42:24.839Z,11.61
2024-03-17T12:43:24.842Z,11.69
2024-03-17T12:44:24.890Z,11.70
2024-03-17T12:45:24.817Z,11.73
2024-03-17T12:46:24.839Z,11.67
2024-03-17T12:47:24.773Z,11.73
2024-03-17T12:48:24.794Z,11.78
2024-03-17T12:49:24.842Z,11.80
2024-03-17T12:50:24.743Z,11.94
2024-03-17T12:51:25.028Z,11.96
2024-03-17T12:52:24.840Z,11.94
2024-03-17T12:53:24.706Z,11.88
2024-03-17T12:54:24.720Z,11.85
2024-03-17T12:55:24.740Z,11.80
2024-03-17T12:56:24.684Z,11.72
2024-03-17T12:57:24.684Z,11.61
2024-03-17T12:58:24.731Z,11.58
2024-03-17T12:59:24.675Z,11.51
2024-03-17T13:00:24.676Z,11.54
2024-03-17T13:01:24.632Z,11.57
2024-03-17T13:02:24.910Z,11.54
2024-03-17T13:03:24.648Z,11.44
2024-03-17T13:04:24.625Z,11.36
2024-03-17T13:05:24.605Z,11.25
2024-03-17T13:06:24.617Z,11.25
2024-03-17T13:07:24.581Z,11.21
2024-03-17T13:08:24.560Z,11.19
2024-03-17T13:09:24.537Z,11.17
2024-03-17T13:10:24.592Z,11.18
2024-03-17T13:11:24.532Z,11.14
2024-03-17T13:12:24.527Z,11.14
2024-03-17T13:13:24.513Z,11.14